Time;durP1;ratioP1;P1;durP2;ratioP2;P2;SDS_P1;SDS_P2;PMS_P1;PMS_P2;Temp;Humidity;BMP_temperature;BMP_pressure;BME280_temperature;BME280_humidity;BME280_pressure;Samples;Min_cycle;Max_cycle;Signal;HPM_P1;HPM_P2
2023/02/24 00:02:24;;;;;;;;;;;8.40;1.00;;;;;;4997144;28;19932;-77
2023/02/24 00:04:50;;;;;;;;;;;8.40;1.00;;;;;;4982220;28;20287;-76
2023/02/24 00:07:16;;;;;;;;;;;8.40;1.00;;;;;;4990659;28;19924;-77
2023/02/24 00:09:47;;;;;;;;;;;8.40;1.00;;;;;;4997222;28;19921;-77
2023/02/24 00:12:14;;;;;;;;;;;8.40;1.00;;;;;;4994753;28;19925;-77
2023/02/24 00:14:42;;;;;;;;;;;8.40;1.00;;;;;;4977210;28;19910;-77
2023/02/24 00:17:08;;;;;;;;;;;8.40;1.00;;;;;;4993195;28;19925;-76
2023/02/24 00:19:35;;;;;;;;;;;8.40;1.00;;;;;;4994007;28;20359;-76
2023/02/24 00:22:02;;;;;;;;;;;8.40;1.00;;;;;;4993053;28;19943;-77
2023/02/24 00:24:28;;;;;;;;;;;8.40;1.00;;;;;;4997172;28;20329;-78
2023/02/24 00:26:58;;;;;;;;;;;8.40;1.00;;;;;;4983696;28;19913;-77
2023/02/24 00:29:25;;;;;;;;;;;8.40;1.00;;;;;;4994093;28;19991;-77
2023/02/24 00:31:57;;;;;;;;;;;8.40;1.00;;;;;;4986114;28;20267;-77
2023/02/24 00:34:34;;;;;;;;;;;8.30;1.00;;;;;;4984855;28;20367;-77
2023/02/24 00:37:00;;;;;;;;;;;8.30;1.00;;;;;;4992612;28;20290;-77
2023/02/24 00:39:31;;;;;;;;;;;8.30;1.00;;;;;;4980362;28;19914;-79
2023/02/24 00:42:03;;;;;;;;;;;8.30;1.00;;;;;;4979285;28;20392;-76
2023/02/24 00:44:33;;;;;;;;;;;8.30;1.00;;;;;;4968793;28;19921;-77
2023/02/24 00:47:00;;;;;;;;;;;8.20;1.00;;;;;;4992630;28;19913;-76
2023/02/24 00:49:28;;;;;;;;;;;8.20;1.00;;;;;;4994023;28;19910;-77
2023/02/24 00:51:54;;;;;;;;;;;8.20;1.00;;;;;;4992070;28;19921;-76
2023/02/24 00:54:24;;;;;;;;;;;8.20;1.00;;;;;;4993174;28;20409;-76
2023/02/24 00:56:50;;;;;;;;;;;8.20;1.00;;;;;;4991692;28;20428;-76
2023/02/24 00:59:17;;;;;;;;;;;8.20;1.00;;;;;;4979238;28;19914;-76
2023/02/24 01:01:44;;;;;;;;;;;8.10;1.00;;;;;;4978864;28;19922;-76
2023/02/24 01:04:11;;;;;;;;;;;8.10;1.00;;;;;;4993446;28;19932;-76
2023/02/24 01:06:40;;;;;;;;;;;8.10;1.00;;;;;;4978126;28;19914;-76
2023/02/24 01:09:15;;;;;;;;;;;8.10;1.00;;;;;;4997370;28;19916;-76
2023/02/24 01:14:28;;;;;;;;;;;7.90;1.00;;;;;;4997149;28;19921;-76
2023/02/24 01:16:54;;;;;;;;;;;7.80;1.00;;;;;;4995624;28;20266;-76
2023/02/24 01:19:23;;;;;;;;;;;7.80;1.00;;;;;;4993674;28;20275;-76
2023/02/24 01:21:54;;;;;;;;;;;7.70;1.00;;;;;;4998916;28;19918;-76
2023/02/24 01:24:20;;;;;;;;;;;7.80;1.00;;;;;;4978247;28;19925;-76
2023/02/24 01:26:46;;;;;;;;;;;7.70;1.00;;;;;;4991069;28;19914;-76
2023/02/24 01:29:13;;;;;;;;;;;7.70;1.00;;;;;;4993164;28;19913;-76
2023/02/24 01:31:41;;;;;;;;;;;7.60;1.00;;;;;;4993561;28;20389;-74
2023/02/24 01:34:09;;;;;;;;;;;7.50;1.00;;;;;;4993460;28;19957;-75
2023/02/24 01:36:36;;;;;;;;;;;7.50;1.00;;;;;;4977896;28;19921;-75
2023/02/24 01:39:04;;;;;;;;;;;7.40;1.00;;;;;;4993378;28;19918;-75
2023/02/24 01:41:30;;;;;;;;;;;7.40;1.00;;;;;;4991823;28;20279;-76
2023/02/24 01:44:04;;;;;;;;;;;7.30;1.00;;;;;;4994856;28;20377;-75
2023/02/24 01:46:31;;;;;;;;;;;7.30;1.00;;;;;;4974721;28;19921;-77
2023/02/24 01:49:02;;;;;;;;;;;7.30;1.00;;;;;;4995587;28;19973;-75
2023/02/24 01:51:31;;;;;;;;;;;7.20;1.00;;;;;;4978461;28;19918;-75
2023/02/24 01:53:57;;;;;;;;;;;7.10;1.00;;;;;;4992948;28;19921;-75
2023/02/24 01:56:23;;;;;;;;;;;7.20;1.00;;;;;;4990185;28;19943;-75
2023/02/24 01:58:49;;;;;;;;;;;7.20;1.00;;;;;;4977981;28;19969;-76
2023/02/24 02:01:18;;;;;;;;;;;7.20;1.00;;;;;;4992272;28;19925;-76
2023/02/24 02:03:44;;;;;;;;;;;7.20;1.00;;;;;;4992554;28;19928;-76
2023/02/24 02:06:12;;;;;;;;;;;7.20;1.00;;;;;;4991371;28;19922;-76
2023/02/24 02:08:39;;;;;;;;;;;7.20;1.00;;;;;;4988487;28;20270;-76
2023/02/24 02:11:07;;;;;;;;;;;7.20;1.00;;;;;;4991515;28;19914;-76
2023/02/24 02:13:37;;;;;;;;;;;7.10;1.00;;;;;;4978993;28;19914;-76
2023/02/24 02:16:18;;;;;;;;;;;7.20;1.00;;;;;;4995082;28;19918;-76
2023/02/24 02:18:47;;;;;;;;;;;7.10;1.00;;;;;;4992437;28;19921;-76
2023/02/24 02:21:29;;;;;;;;;;;7.20;1.00;;;;;;4992974;28;19918;-76
2023/02/24 02:23:58;;;;;;;;;;;7.10;1.00;;;;;;4995797;28;19914;-76
2023/02/24 02:26:27;;;;;;;;;;;7.20;1.00;;;;;;4994928;28;19909;-76
2023/02/24 02:29:00;;;;;;;;;;;7.20;1.00;;;;;;4973868;28;20542;-75
2023/02/24 02:31:45;;;;;;;;;;;7.10;1.00;;;;;;4980304;28;19914;-77
2023/02/24 02:34:14;;;;;;;;;;;7.20;1.00;;;;;;4979912;28;20239;-76
2023/02/24 02:36:49;;;;;;;;;;;7.20;1.00;;;;;;4988802;28;20286;-76
2023/02/24 02:39:24;;;;;;;;;;;7.20;1.00;;;;;;4992890;28;19914;-76
2023/02/24 02:42:03;;;;;;;;;;;7.20;1.00;;;;;;4972355;28;19921;-76
2023/02/24 02:44:31;;;;;;;;;;;7.20;1.00;;;;;;4977461;28;20373;-75
2023/02/24 02:47:04;;;;;;;;;;;7.20;1.00;;;;;;4977616;28;20401;-74
2023/02/24 02:49:34;;;;;;;;;;;7.20;1.00;;;;;;4992444;28;19921;-77
2023/02/24 02:52:16;;;;;;;;;;;7.20;1.00;;;;;;4992527;28;19914;-77
2023/02/24 02:54:48;;;;;;;;;;;7.20;1.00;;;;;;4998447;28;19921;-77
2023/02/24 02:57:19;;;;;;;;;;;7.30;1.00;;;;;;4995928;28;19914;-75
2023/02/24 02:59:49;;;;;;;;;;;7.30;1.00;;;;;;4995519;28;19913;-77
2023/02/24 03:02:18;;;;;;;;;;;7.20;1.00;;;;;;4992971;28;19929;-78
2023/02/24 03:04:53;;;;;;;;;;;7.20;1.00;;;;;;4978361;28;19922;-77
2023/02/24 03:07:21;;;;;;;;;;;7.20;1.00;;;;;;4985219;28;19914;-76
2023/02/24 03:09:50;;;;;;;;;;;7.20;1.00;;;;;;4979876;28;19910;-77
2023/02/24 03:12:20;;;;;;;;;;;7.20;1.00;;;;;;4985672;28;19922;-79
2023/02/24 03:14:49;;;;;;;;;;;7.20;1.00;;;;;;4995369;28;19910;-77
2023/02/24 03:17:20;;;;;;;;;;;7.20;1.00;;;;;;4981591;28;19921;-76
2023/02/24 03:19:52;;;;;;;;;;;7.10;1.00;;;;;;4995252;28;19913;-77
2023/02/24 03:22:23;;;;;;;;;;;7.10;1.00;;;;;;4971886;28;19917;-77
2023/02/24 03:24:50;;;;;;;;;;;7.10;1.00;;;;;;4977574;28;19922;-77
2023/02/24 03:27:24;;;;;;;;;;;7.10;1.00;;;;;;4983784;28;20367;-78
2023/02/24 03:29:51;;;;;;;;;;;7.10;1.00;;;;;;4983253;28;19914;-74
2023/02/24 03:32:42;;;;;;;;;;;7.10;1.00;;;;;;4992976;28;19917;-76
2023/02/24 03:35:12;;;;;;;;;;;7.10;1.00;;;;;;4992928;28;19924;-75
2023/02/24 03:37:38;;;;;;;;;;;7.10;1.00;;;;;;4983872;28;19917;-76
2023/02/24 03:40:10;;;;;;;;;;;7.10;1.00;;;;;;4997691;28;19914;-77
2023/02/24 03:42:38;;;;;;;;;;;7.10;1.00;;;;;;4984003;28;19914;-79
2023/02/24 03:45:06;;;;;;;;;;;7.10;1.00;;;;;;4981298;28;20405;-77
2023/02/24 03:47:32;;;;;;;;;;;7.10;1.00;;;;;;4993613;28;19913;-77
2023/02/24 03:49:58;;;;;;;;;;;7.10;1.00;;;;;;4986632;28;19925;-77
2023/02/24 03:52:31;;;;;;;;;;;7.00;1.00;;;;;;4969326;28;20294;-77
2023/02/24 03:55:07;;;;;;;;;;;7.00;1.00;;;;;;4985104;28;19918;-77
2023/02/24 03:57:33;;;;;;;;;;;7.00;1.00;;;;;;4983175;28;19913;-77
2023/02/24 04:00:19;;;;;;;;;;;7.00;1.00;;;;;;4990384;28;20361;-77
2023/02/24 04:02:47;;;;;;;;;;;6.90;1.00;;;;;;4978005;28;19918;-76
2023/02/24 04:05:19;;;;;;;;;;;7.00;1.00;;;;;;4993826;28;19922;-77
2023/02/24 04:07:52;;;;;;;;;;;7.00;1.00;;;;;;4977572;28;19918;-77
2023/02/24 04:10:22;;;;;;;;;;;6.90;1.00;;;;;;4991612;28;20347;-77
2023/02/24 04:13:01;;;;;;;;;;;6.90;1.00;;;;;;4980131;28;20311;-77
2023/02/24 04:15:30;;;;;;;;;;;6.90;1.00;;;;;;4973231;28;19921;-77
2023/02/24 04:18:00;;;;;;;;;;;6.90;1.00;;;;;;4981897;28;19914;-79
2023/02/24 04:20:31;;;;;;;;;;;6.90;1.00;;;;;;4973668;28;19913;-76
2023/02/24 04:23:03;;;;;;;;;;;6.90;1.00;;;;;;4984950;28;19914;-75
2023/02/24 04:25:30;;;;;;;;;;;6.90;1.00;;;;;;4997527;28;19932;-74
2023/02/24 04:27:58;;;;;;;;;;;6.90;1.00;;;;;;4980374;28;19917;-74
2023/02/24 04:30:25;;;;;;;;;;;6.90;1.00;;;;;;4996577;28;20275;-74
2023/02/24 04:32:51;;;;;;;;;;;6.90;1.00;;;;;;4979346;28;19918;-74
2023/02/24 04:35:19;;;;;;;;;;;6.90;1.00;;;;;;4990630;28;19913;-74
2023/02/24 04:37:51;;;;;;;;;;;6.90;1.00;;;;;;4976941;28;19918;-74
2023/02/24 04:40:20;;;;;;;;;;;6.90;1.00;;;;;;4993343;28;19914;-75
2023/02/24 04:42:48;;;;;;;;;;;6.90;1.00;;;;;;4994263;28;19913;-76
2023/02/24 04:45:15;;;;;;;;;;;6.90;1.00;;;;;;4990999;28;19925;-74
2023/02/24 04:47:54;;;;;;;;;;;6.90;1.00;;;;;;4994698;28;19914;-74
2023/02/24 04:50:21;;;;;;;;;;;6.90;1.00;;;;;;4997730;28;20262;-75
2023/02/24 04:52:49;;;;;;;;;;;6.90;1.00;;;;;;4996134;28;20307;-75
2023/02/24 04:55:16;;;;;;;;;;;6.90;1.00;;;;;;4992027;28;19913;-74
2023/02/24 04:57:44;;;;;;;;;;;6.90;1.00;;;;;;4996888;28;19937;-75
2023/02/24 05:00:21;;;;;;;;;;;6.90;1.00;;;;;;4996907;28;19913;-74
2023/02/24 05:02:51;;;;;;;;;;;6.90;1.00;;;;;;4996426;28;19918;-77
2023/02/24 05:05:24;;;;;;;;;;;6.90;1.00;;;;;;4993000;28;19922;-77
2023/02/24 05:07:54;;;;;;;;;;;6.90;1.00;;;;;;4992934;28;19914;-77
2023/02/24 05:10:26;;;;;;;;;;;6.80;1.00;;;;;;4993713;28;19914;-77
2023/02/24 05:13:00;;;;;;;;;;;6.80;1.00;;;;;;4992100;28;19937;-75
2023/02/24 05:15:30;;;;;;;;;;;6.80;1.00;;;;;;4993936;28;19913;-74
2023/02/24 05:17:57;;;;;;;;;;;6.80;1.00;;;;;;4993884;28;19921;-74
2023/02/24 05:23:08;;;;;;;;;;;6.70;1.00;;;;;;4992207;28;19914;-75
2023/02/24 05:25:36;;;;;;;;;;;6.70;1.00;;;;;;4993484;28;19918;-74
2023/02/24 05:28:03;;;;;;;;;;;6.70;1.00;;;;;;4992586;28;19914;-74
2023/02/24 05:30:29;;;;;;;;;;;6.70;1.00;;;;;;4993406;28;19914;-75
2023/02/24 05:32:55;;;;;;;;;;;6.70;1.00;;;;;;4991333;28;19918;-75
2023/02/24 05:35:21;;;;;;;;;;;6.70;1.00;;;;;;4996096;28;20446;-75
2023/02/24 05:37:47;;;;;;;;;;;6.70;1.00;;;;;;4981198;28;20318;-75
2023/02/24 05:40:13;;;;;;;;;;;6.70;1.00;;;;;;4995752;28;19967;-74
2023/02/24 05:42:40;;;;;;;;;;;6.70;1.00;;;;;;4993237;28;19910;-75
2023/02/24 05:45:10;;;;;;;;;;;6.60;1.00;;;;;;4992288;28;19929;-74
2023/02/24 05:47:36;;;;;;;;;;;6.60;1.00;;;;;;4979252;28;19914;-76
2023/02/24 05:50:02;;;;;;;;;;;6.60;1.00;;;;;;4992484;28;20382;-76
2023/02/24 05:52:28;;;;;;;;;;;6.60;1.00;;;;;;4993053;28;19914;-76
2023/02/24 05:54:54;;;;;;;;;;;6.60;1.00;;;;;;4993225;28;19976;-74
2023/02/24 05:57:23;;;;;;;;;;;6.60;1.00;;;;;;4993093;28;19972;-75
2023/02/24 05:59:50;;;;;;;;;;;6.60;1.00;;;;;;4991920;28;20271;-75
2023/02/24 06:02:25;;;;;;;;;;;6.60;1.00;;;;;;5001397;28;19926;-75
2023/02/24 06:04:55;;;;;;;;;;;6.60;1.00;;;;;;4994431;28;19922;-76
2023/02/24 06:07:23;;;;;;;;;;;6.60;1.00;;;;;;4992828;28;20378;-77
2023/02/24 06:09:55;;;;;;;;;;;6.60;1.00;;;;;;4992362;28;19920;-76
2023/02/24 06:12:26;;;;;;;;;;;6.50;1.00;;;;;;4992909;28;19913;-76
2023/02/24 06:14:52;;;;;;;;;;;6.40;1.00;;;;;;4995156;28;20367;-76
2023/02/24 06:17:19;;;;;;;;;;;6.40;1.00;;;;;;4997253;28;20004;-75
2023/02/24 06:19:48;;;;;;;;;;;6.50;1.00;;;;;;4993743;28;20279;-76
2023/02/24 06:22:16;;;;;;;;;;;6.40;1.00;;;;;;4993938;28;20256;-76
2023/02/24 06:24:44;;;;;;;;;;;6.40;1.00;;;;;;4991234;28;19921;-79
2023/02/24 06:27:16;;;;;;;;;;;6.40;1.00;;;;;;4993673;28;19914;-76
2023/02/24 06:29:42;;;;;;;;;;;6.40;1.00;;;;;;4998098;28;20291;-75
2023/02/24 06:32:09;;;;;;;;;;;6.50;1.00;;;;;;4996488;28;20278;-76
2023/02/24 06:34:35;;;;;;;;;;;6.50;1.00;;;;;;4995035;28;19913;-76
2023/02/24 06:37:02;;;;;;;;;;;6.60;1.00;;;;;;4995245;28;19909;-77
2023/02/24 06:39:29;;;;;;;;;;;6.60;1.00;;;;;;4993533;28;19921;-77
2023/02/24 06:41:56;;;;;;;;;;;6.60;1.00;;;;;;5009912;28;20264;-76
2023/02/24 06:44:23;;;;;;;;;;;6.60;1.00;;;;;;5004489;28;19918;-76
2023/02/24 06:46:49;;;;;;;;;;;6.60;1.00;;;;;;5000933;28;19922;-82
2023/02/24 06:49:15;;;;;;;;;;;6.60;1.00;;;;;;4995736;28;19914;-78
2023/02/24 06:51:42;;;;;;;;;;;6.60;1.00;;;;;;4995794;28;19961;-79
2023/02/24 06:54:08;;;;;;;;;;;6.70;1.00;;;;;;4993865;28;20294;-78
2023/02/24 06:56:37;;;;;;;;;;;6.60;1.00;;;;;;4988751;28;19914;-79
2023/02/24 06:59:05;;;;;;;;;;;6.70;1.00;;;;;;4982315;28;20403;-78
2023/02/24 07:01:33;;;;;;;;;;;6.70;1.00;;;;;;4980253;28;19928;-78
2023/02/24 07:04:16;;;;;;;;;;;6.70;1.00;;;;;;4985329;28;19918;-76
2023/02/24 07:06:43;;;;;;;;;;;6.70;1.00;;;;;;4999606;28;19922;-77
2023/02/24 07:09:11;;;;;;;;;;;6.70;1.00;;;;;;4995348;28;19910;-76
2023/02/24 07:11:40;;;;;;;;;;;6.80;1.00;;;;;;4999686;28;19913;-75
2023/02/24 07:14:06;;;;;;;;;;;6.80;1.00;;;;;;4985102;28;19914;-76
2023/02/24 07:16:33;;;;;;;;;;;6.80;1.00;;;;;;4995093;28;19913;-76
2023/02/24 07:19:08;;;;;;;;;;;6.90;1.00;;;;;;4999597;28;20351;-76
2023/02/24 07:21:42;;;;;;;;;;;6.90;1.00;;;;;;5004548;28;20386;-76
2023/02/24 07:24:12;;;;;;;;;;;6.90;1.00;;;;;;4995417;28;19918;-75
2023/02/24 07:26:40;;;;;;;;;;;7.00;1.00;;;;;;4998822;28;20304;-76
2023/02/24 07:29:07;;;;;;;;;;;7.00;1.00;;;;;;4995994;28;19921;-76
2023/02/24 07:31:35;;;;;;;;;;;7.10;1.00;;;;;;4997463;28;19914;-76
2023/02/24 07:34:02;;;;;;;;;;;7.10;1.00;;;;;;4996531;28;19940;-76
2023/02/24 07:36:37;;;;;;;;;;;7.20;1.00;;;;;;4981101;28;20005;-77
2023/02/24 07:39:04;;;;;;;;;;;7.20;1.00;;;;;;4994515;28;19920;-76
2023/02/24 07:41:30;;;;;;;;;;;7.30;1.00;;;;;;4981539;28;20293;-76
2023/02/24 07:43:58;;;;;;;;;;;7.30;1.00;;;;;;5000182;28;20290;-76
2023/02/24 07:46:26;;;;;;;;;;;7.40;1.00;;;;;;4984556;28;19925;-73
2023/02/24 07:48:53;;;;;;;;;;;7.40;1.00;;;;;;4993011;28;19918;-73
2023/02/24 07:51:21;;;;;;;;;;;7.50;1.00;;;;;;4994776;28;19921;-74
2023/02/24 07:53:48;;;;;;;;;;;7.60;1.00;;;;;;4994671;28;19910;-76
2023/02/24 07:56:16;;;;;;;;;;;7.60;1.00;;;;;;4994343;28;19920;-73
2023/02/24 07:58:43;;;;;;;;;;;7.60;1.00;;;;;;4994269;28;19917;-74
2023/02/24 08:01:16;;;;;;;;;;;7.70;1.00;;;;;;4993733;28;19921;-73
2023/02/24 08:03:43;;;;;;;;;;;7.70;1.00;;;;;;4996846;28;19929;-73
2023/02/24 08:06:14;;;;;;;;;;;7.70;1.00;;;;;;4993323;28;19922;-73
2023/02/24 08:08:56;;;;;;;;;;;7.70;1.00;;;;;;4994366;28;20017;-73
2023/02/24 08:11:23;;;;;;;;;;;7.80;1.00;;;;;;4998669;28;19914;-73
2023/02/24 08:13:50;;;;;;;;;;;7.80;1.00;;;;;;4997095;28;20009;-75
2023/02/24 08:16:15;;;;;;;;;;;7.90;1.00;;;;;;4993949;28;19910;-73
2023/02/24 08:18:47;;;;;;;;;;;8.00;1.00;;;;;;4994155;28;19914;-73
2023/02/24 08:21:15;;;;;;;;;;;8.00;1.00;;;;;;5001269;28;19913;-73
2023/02/24 08:23:44;;;;;;;;;;;8.10;1.00;;;;;;4981412;28;19933;-73
2023/02/24 08:26:11;;;;;;;;;;;8.20;1.00;;;;;;4999510;28;19921;-73
2023/02/24 08:28:38;;;;;;;;;;;8.20;1.00;;;;;;4997843;28;19921;-73
2023/02/24 08:31:04;;;;;;;;;;;8.20;1.00;;;;;;4993133;28;19917;-73
2023/02/24 08:33:31;;;;;;;;;;;8.20;1.00;;;;;;4996410;28;19925;-73
2023/02/24 08:36:00;;;;;;;;;;;8.30;1.00;;;;;;4993216;28;19913;-73
2023/02/24 08:38:38;;;;;;;;;;;8.40;1.00;;;;;;4993774;28;19914;-73
2023/02/24 08:41:05;;;;;;;;;;;8.50;1.00;;;;;;4995238;28;19914;-73
2023/02/24 08:43:37;;;;;;;;;;;9.00;1.00;;;;;;4995017;28;19942;-73
2023/02/24 08:46:11;;;;;;;;;;;9.10;99.90;;;;;;4997810;28;19921;-74
2023/02/24 08:48:37;;;;;;;;;;;9.20;99.90;;;;;;4997167;28;20403;-73
2023/02/24 08:51:09;;;;;;;;;;;9.40;99.90;;;;;;4992723;28;19921;-73
2023/02/24 08:53:39;;;;;;;;;;;9.50;99.90;;;;;;4981568;28;19914;-73
2023/02/24 08:56:10;;;;;;;;;;;9.70;99.90;;;;;;5003293;28;20521;-74
2023/02/24 08:58:45;;;;;;;;;;;9.80;99.90;;;;;;4997421;28;19914;-74
2023/02/24 09:01:22;;;;;;;;;;;10.20;99.90;;;;;;5000012;28;19921;-73
2023/02/24 09:03:49;;;;;;;;;;;9.70;99.90;;;;;;4992948;28;19922;-73
2023/02/24 09:06:24;;;;;;;;;;;9.60;99.90;;;;;;4995410;28;19922;-73
2023/02/24 09:09:15;;;;;;;;;;;9.70;99.90;;;;;;4994155;28;19913;-76
2023/02/24 09:11:37;;;;;;;;;;;9.70;99.90;;;;;;4994679;28;20009;-75
2023/02/24 09:14:03;;;;;;;;;;;9.40;99.90;;;;;;4992378;28;19913;-74
2023/02/24 09:16:29;;;;;;;;;;;9.30;99.90;;;;;;4992899;28;19910;-73
2023/02/24 09:24:25;;;;;;;;;;;9.10;99.90;;;;;;4990890;28;19918;-75
2023/02/24 09:26:58;;;;;;;;;;;9.00;99.90;;;;;;4992685;28;20120;-76
2023/02/24 09:29:33;;;;;;;;;;;9.20;99.90;;;;;;4992907;28;19914;-75
2023/02/24 09:32:03;;;;;;;;;;;9.70;99.90;;;;;;4998952;28;19941;-75
2023/02/24 09:34:33;;;;;;;;;;;10.30;99.90;;;;;;4999089;28;20363;-75
2023/02/24 09:37:02;;;;;;;;;;;10.40;99.90;;;;;;4993867;28;19914;-75
2023/02/24 09:40:21;;;;;;;;;;;10.30;99.90;;;;;;4999488;28;19918;-77
2023/02/24 09:44:51;;;;;;;;;;;10.10;99.90;;;;;;4993329;28;19951;-74
2023/02/24 09:47:39;;;;;;;;;;;10.10;99.90;;;;;;4995624;28;19930;-74
2023/02/24 09:50:05;;;;;;;;;;;10.20;99.90;;;;;;4993146;28;19921;-74
2023/02/24 09:52:40;;;;;;;;;;;9.90;99.90;;;;;;4992709;28;19914;-74
2023/02/24 09:55:26;;;;;;;;;;;10.00;99.90;;;;;;4992315;28;20379;-76
2023/02/24 10:01:19;;;;;;;;;;;10.40;99.90;;;;;;4993999;28;19922;-75
2023/02/24 10:04:03;;;;;;;;;;;10.60;99.90;;;;;;5000063;28;19922;-75
2023/02/24 10:06:39;;;;;;;;;;;10.60;99.90;;;;;;5001821;28;19926;-75
2023/02/24 10:09:10;;;;;;;;;;;10.40;99.90;;;;;;4984622;28;20415;-72
2023/02/24 10:11:52;;;;;;;;;;;10.20;99.90;;;;;;4999358;28;19921;-72
2023/02/24 10:14:37;;;;;;;;;;;10.10;99.90;;;;;;5001169;28;19917;-73
2023/02/24 10:17:21;;;;;;;;;;;10.10;99.90;;;;;;4999517;28;19918;-72
2023/02/24 10:19:55;;;;;;;;;;;10.30;99.90;;;;;;4998534;28;19918;-73
2023/02/24 10:22:28;;;;;;;;;;;10.40;99.90;;;;;;4996821;28;19914;-73
2023/02/24 10:25:09;;;;;;;;;;;10.50;99.90;;;;;;4994873;28;19921;-73
2023/02/24 10:27:42;;;;;;;;;;;10.50;99.90;;;;;;4993262;28;20248;-73
2023/02/24 10:30:18;;;;;;;;;;;10.60;99.90;;;;;;4999933;28;19925;-73
2023/02/24 10:32:59;;;;;;;;;;;10.60;99.90;;;;;;4998266;28;19928;-73
2023/02/24 10:35:32;;;;;;;;;;;10.60;99.90;;;;;;4996104;28;19921;-73
2023/02/24 10:38:04;;;;;;;;;;;10.60;99.90;;;;;;4994683;28;20389;-73
2023/02/24 10:40:43;;;;;;;;;;;10.50;99.90;;;;;;4998133;28;20286;-73
2023/02/24 10:43:09;;;;;;;;;;;10.30;99.90;;;;;;5001806;28;20393;-73
2023/02/24 10:45:43;;;;;;;;;;;10.20;99.90;;;;;;5002255;28;19921;-73
2023/02/24 10:48:15;;;;;;;;;;;10.00;99.90;;;;;;4997409;28;19918;-72
2023/02/24 10:50:43;;;;;;;;;;;9.90;99.90;;;;;;4998234;28;19921;-72
2023/02/24 10:53:25;;;;;;;;;;;10.00;99.90;;;;;;4983152;28;19909;-73
2023/02/24 10:56:13;;;;;;;;;;;10.20;99.90;;;;;;4998328;28;20392;-72
2023/02/24 11:01:39;;;;;;;;;;;10.30;99.90;;;;;;5000055;28;19926;-72
2023/02/24 11:07:08;;;;;;;;;;;10.10;99.90;;;;;;4993399;28;19918;-75
2023/02/24 11:09:42;;;;;;;;;;;10.00;99.90;;;;;;5007657;28;20293;-73
2023/02/24 11:17:47;;;;;;;;;;;10.30;99.90;;;;;;4997416;28;19921;-72
2023/02/24 11:20:21;;;;;;;;;;;10.40;99.90;;;;;;5004542;28;19914;-72
2023/02/24 11:22:50;;;;;;;;;;;10.70;99.90;;;;;;4995644;28;19917;-72
2023/02/24 11:25:31;;;;;;;;;;;10.80;99.90;;;;;;4998757;28;19917;-76
2023/02/24 11:27:57;;;;;;;;;;;10.60;99.90;;;;;;4992431;28;19925;-74
2023/02/24 11:30:29;;;;;;;;;;;10.50;99.90;;;;;;4993839;28;19968;-73
2023/02/24 11:33:14;;;;;;;;;;;10.60;99.90;;;;;;4999815;28;20363;-74
2023/02/24 11:35:58;;;;;;;;;;;10.80;99.90;;;;;;4994461;28;19920;-73
2023/02/24 11:38:44;;;;;;;;;;;10.80;99.90;;;;;;4996584;28;19914;-73
2023/02/24 11:41:10;;;;;;;;;;;10.70;99.90;;;;;;4998348;28;19976;-73
2023/02/24 11:43:39;;;;;;;;;;;10.70;99.90;;;;;;4995643;28;19921;-73
2023/02/24 11:46:16;;;;;;;;;;;10.50;99.90;;;;;;4993854;28;20383;-73
2023/02/24 11:48:50;;;;;;;;;;;10.20;99.90;;;;;;4997119;28;19918;-74
2023/02/24 11:51:18;;;;;;;;;;;10.20;99.90;;;;;;4997544;28;19917;-75
2023/02/24 11:54:05;;;;;;;;;;;10.40;99.90;;;;;;4994324;28;19918;-75
2023/02/24 11:56:41;;;;;;;;;;;10.50;99.90;;;;;;4996070;28;19921;-74
2023/02/24 11:59:14;;;;;;;;;;;10.50;99.90;;;;;;4996299;28;19925;-74
2023/02/24 12:01:51;;;;;;;;;;;10.70;99.90;;;;;;4996854;28;19932;-73
2023/02/24 12:04:23;;;;;;;;;;;10.80;99.90;;;;;;4997005;28;19917;-73
2023/02/24 12:06:55;;;;;;;;;;;10.90;99.90;;;;;;4996882;28;20363;-73
2023/02/24 12:09:25;;;;;;;;;;;10.90;99.90;;;;;;4997022;28;20278;-73
2023/02/24 12:11:55;;;;;;;;;;;10.90;99.90;;;;;;4994311;28;19913;-73
2023/02/24 12:14:40;;;;;;;;;;;10.90;99.90;;;;;;4997707;28;20301;-75
2023/02/24 12:17:24;;;;;;;;;;;10.80;99.90;;;;;;4979048;28;19913;-74
2023/02/24 12:20:16;;;;;;;;;;;10.60;99.90;;;;;;4997497;28;19914;-74
2023/02/24 12:23:01;;;;;;;;;;;10.60;99.90;;;;;;4994451;28;19964;-74
2023/02/24 12:25:31;;;;;;;;;;;10.60;99.90;;;;;;4997116;28;19925;-74
2023/02/24 12:28:03;;;;;;;;;;;10.60;99.90;;;;;;4989849;28;19922;-74
2023/02/24 12:30:49;;;;;;;;;;;10.70;99.90;;;;;;4992652;28;20286;-73
2023/02/24 12:33:15;;;;;;;;;;;10.80;99.90;;;;;;4997558;28;19918;-73
2023/02/24 12:36:08;;;;;;;;;;;11.00;99.90;;;;;;4984506;28;19917;-74
2023/02/24 12:38:59;;;;;;;;;;;11.10;99.90;;;;;;4989478;28;20359;-74
2023/02/24 12:41:43;;;;;;;;;;;11.10;99.90;;;;;;4997808;28;19913;-74
2023/02/24 12:44:12;;;;;;;;;;;11.20;99.90;;;;;;4996489;28;20290;-73
2023/02/24 12:46:39;;;;;;;;;;;11.20;99.90;;;;;;4992655;28;19928;-75
2023/02/24 12:49:08;;;;;;;;;;;11.20;99.90;;;;;;4990617;28;19914;-75
2023/02/24 12:51:40;;;;;;;;;;;11.30;99.90;;;;;;4993642;28;19914;-74
2023/02/24 12:54:15;;;;;;;;;;;11.40;99.90;;;;;;4996625;28;19914;-74
2023/02/24 12:56:53;;;;;;;;;;;11.50;99.90;;;;;;4993499;28;19921;-74
2023/02/24 12:59:21;;;;;;;;;;;11.30;99.90;;;;;;4991361;28;20287;-74
2023/02/24 13:02:05;;;;;;;;;;;11.10;99.90;;;;;;4993416;28;19926;-74
2023/02/24 13:04:43;;;;;;;;;;;11.00;99.90;;;;;;4996930;28;19917;-74
2023/02/24 13:07:09;;;;;;;;;;;11.20;99.90;;;;;;4992499;28;19918;-75
2023/02/24 13:09:39;;;;;;;;;;;11.30;99.90;;;;;;4980575;28;19925;-74
2023/02/24 13:12:13;;;;;;;;;;;11.20;99.90;;;;;;4992744;28;19921;-74
2023/02/24 13:14:40;;;;;;;;;;;11.10;99.90;;;;;;5000020;28;19914;-74
2023/02/24 13:17:09;;;;;;;;;;;11.10;99.90;;;;;;4991728;28;19925;-75
2023/02/24 13:19:36;;;;;;;;;;;11.30;99.90;;;;;;4985788;28;19914;-74
2023/02/24 13:22:07;;;;;;;;;;;11.50;99.90;;;;;;4992771;28;19917;-77
2023/02/24 13:24:35;;;;;;;;;;;11.90;99.90;;;;;;4992946;28;19914;-75
2023/02/24 13:27:16;;;;;;;;;;;12.00;99.90;;;;;;4991629;28;19921;-74
2023/02/24 13:29:43;;;;;;;;;;;11.80;99.90;;;;;;4992755;28;19918;-75
2023/02/24 13:32:27;;;;;;;;;;;11.70;99.90;;;;;;4996002;28;19944;-77
2023/02/24 13:34:54;;;;;;;;;;;11.70;99.90;;;;;;4995532;28;19929;-76
2023/02/24 13:37:30;;;;;;;;;;;11.70;99.90;;;;;;4991310;28;19918;-76
2023/02/24 13:39:56;;;;;;;;;;;11.70;99.90;;;;;;4990562;28;19914;-75
2023/02/24 13:42:24;;;;;;;;;;;11.70;99.90;;;;;;4993226;28;20383;-75
2023/02/24 13:44:53;;;;;;;;;;;11.80;99.90;;;;;;4974136;28;19922;-76
2023/02/24 13:47:29;;;;;;;;;;;12.10;99.90;;;;;;4990728;28;19925;-77
2023/02/24 13:50:11;;;;;;;;;;;12.40;99.90;;;;;;4992923;28;19925;-76
2023/02/24 13:52:45;;;;;;;;;;;12.20;99.90;;;;;;4996683;28;19917;-76
2023/02/24 13:55:14;;;;;;;;;;;12.30;99.90;;;;;;4995557;28;19913;-77
2023/02/24 13:57:55;;;;;;;;;;;12.40;99.90;;;;;;4991088;28;19914;-76
2023/02/24 14:00:27;;;;;;;;;;;12.40;99.90;;;;;;4991946;28;19929;-76
2023/02/24 14:02:53;;;;;;;;;;;12.30;99.90;;;;;;4983571;28;19929;-80
2023/02/24 14:05:24;;;;;;;;;;;12.20;99.90;;;;;;4992417;28;20156;-77
2023/02/24 14:07:50;;;;;;;;;;;12.10;99.90;;;;;;4980862;28;19928;-78
2023/02/24 14:10:18;;;;;;;;;;;12.00;99.90;;;;;;4994532;28;19918;-79
2023/02/24 14:12:45;;;;;;;;;;;12.00;99.90;;;;;;4993520;28;19910;-77
2023/02/24 14:15:13;;;;;;;;;;;12.00;99.90;;;;;;4974686;28;19913;-77
2023/02/24 14:17:40;;;;;;;;;;;12.00;99.90;;;;;;4991250;28;19914;-77
2023/02/24 14:20:06;;;;;;;;;;;12.10;99.90;;;;;;4992061;28;19913;-78
2023/02/24 14:22:33;;;;;;;;;;;12.30;99.90;;;;;;4992795;28;19969;-76
2023/02/24 14:25:00;;;;;;;;;;;12.40;99.90;;;;;;4985334;28;19917;-73
2023/02/24 14:27:26;;;;;;;;;;;12.20;99.90;;;;;;4991013;28;19921;-77
2023/02/24 14:29:52;;;;;;;;;;;12.00;99.90;;;;;;4991907;28;19918;-76
2023/02/24 14:32:19;;;;;;;;;;;11.90;99.90;;;;;;4991846;28;19918;-76
2023/02/24 14:34:46;;;;;;;;;;;11.90;99.90;;;;;;4984053;28;19910;-77
2023/02/24 14:37:16;;;;;;;;;;;12.20;99.90;;;;;;4981239;28;20346;-77
2023/02/24 14:39:52;;;;;;;;;;;12.30;99.90;;;;;;4993213;28;19920;-77
2023/02/24 14:42:19;;;;;;;;;;;12.50;99.90;;;;;;4999870;28;19918;-76
2023/02/24 14:44:46;;;;;;;;;;;12.40;99.90;;;;;;4991689;28;19910;-81
2023/02/24 14:47:13;;;;;;;;;;;12.20;99.90;;;;;;4994311;28;19917;-80
2023/02/24 14:49:40;;;;;;;;;;;12.20;99.90;;;;;;4996627;28;20339;-79
2023/02/24 14:52:06;;;;;;;;;;;12.10;99.90;;;;;;4989061;28;19926;-77
2023/02/24 14:54:47;;;;;;;;;;;12.00;99.90;;;;;;4986761;28;20387;-77
2023/02/24 14:57:25;;;;;;;;;;;11.80;99.90;;;;;;4968330;28;19914;-80
2023/02/24 14:59:54;;;;;;;;;;;11.70;99.90;;;;;;4996455;28;19926;-79
2023/02/24 15:02:23;;;;;;;;;;;11.80;99.90;;;;;;4995117;28;19933;-79
2023/02/24 15:04:52;;;;;;;;;;;11.90;99.90;;;;;;4995469;28;19921;-77
2023/02/24 15:07:22;;;;;;;;;;;11.90;99.90;;;;;;4996112;28;19918;-79
2023/02/24 15:09:50;;;;;;;;;;;11.90;99.90;;;;;;4996662;28;19918;-79
2023/02/24 15:12:28;;;;;;;;;;;11.90;99.90;;;;;;4965378;28;19921;-81
2023/02/24 15:15:17;;;;;;;;;;;11.80;99.90;;;;;;4998637;28;19913;-81
2023/02/24 15:17:43;;;;;;;;;;;11.70;99.90;;;;;;4970340;28;19913;-79
2023/02/24 15:20:26;;;;;;;;;;;11.60;99.90;;;;;;4993917;28;19914;-78
2023/02/24 15:22:52;;;;;;;;;;;11.40;99.90;;;;;;4996034;28;20378;-80
2023/02/24 15:25:19;;;;;;;;;;;11.30;99.90;;;;;;4995453;28;19917;-80